createdAt,value
2023-02-09T08:18:16.508Z,97515.00
2023-02-09T08:18:26.910Z,97515.00
2023-02-09T08:19:12.610Z,97509.00
2023-02-09T08:19:23.342Z,97511.00
2023-02-09T08:19:33.363Z,97511.00
2023-02-09T08:19:43.345Z,97511.00
2023-02-09T08:19:52.318Z,97511.00
2023-02-09T08:20:02.339Z,97513.00
2023-02-09T08:20:13.329Z,97519.00
2023-02-09T08:20:23.314Z,97513.00
2023-02-09T08:20:33.319Z,97515.00
2023-02-09T08:20:43.508Z,97513.00
2023-02-09T08:20:52.459Z,97513.00
2023-02-09T08:21:02.296Z,97513.00
2023-02-09T08:21:13.863Z,97515.00
2023-02-09T08:21:23.284Z,97515.00
2023-02-09T08:21:32.270Z,97511.00
2023-02-09T08:21:42.289Z,97511.00
2023-02-09T08:21:53.315Z,97515.00
2023-02-09T08:22:03.281Z,97513.00
2023-02-09T08:22:13.277Z,97511.00
2023-02-09T08:22:23.410Z,97515.00
2023-02-09T08:22:34.304Z,97513.00
2023-02-09T08:22:43.217Z,97511.00
2023-02-09T08:22:53.235Z,97511.00
2023-02-09T08:23:04.073Z,97509.00
2023-02-09T08:23:13.263Z,97511.00
2023-02-09T08:23:22.248Z,97513.00
2023-02-09T08:23:32.194Z,97515.00
2023-02-09T08:23:43.194Z,97515.00
2023-02-09T08:23:53.823Z,97513.00
2023-02-09T09:39:07.402Z,97439.00
2023-02-09T11:00:07.003Z,97403.00
2023-02-09T11:01:07.019Z,97403.00
2023-02-09T11:41:36.633Z,97306.00
2023-02-09T11:42:38.424Z,97304.00
2023-02-09T11:47:27.187Z,97300.00
2023-02-09T11:59:43.894Z,97268.00
2023-02-09T12:05:36.887Z,97271.00
2023-02-09T12:06:37.785Z,97273.00
2023-02-09T12:07:37.011Z,97269.00
2023-02-09T12:09:58.367Z,97267.00
2023-02-09T12:10:57.580Z,97267.00
2023-02-09T12:15:37.065Z,97263.00
2023-02-09T12:16:37.473Z,97259.00
2023-02-09T12:20:10.944Z,97259.00
2023-02-09T12:21:45.251Z,97238.00
2023-02-09T12:22:29.352Z,97257.00
2023-02-09T12:23:45.252Z,97240.00
2023-02-09T12:25:45.245Z,97236.00
2023-02-09T12:27:45.272Z,97232.00
2023-02-09T12:29:45.271Z,97227.00
2023-02-09T12:30:45.675Z,97227.00
2023-02-09T12:31:46.452Z,97223.00
2023-02-09T12:32:44.265Z,97221.00
2023-02-09T12:33:44.254Z,97215.00
2023-02-09T12:34:45.247Z,97217.00
2023-02-09T12:35:44.241Z,97213.00
2023-02-09T12:36:45.437Z,97205.00
2023-02-09T12:37:45.243Z,97205.00
2023-02-09T12:38:49.467Z,97203.00
2023-02-09T12:39:45.269Z,97213.00
2023-02-09T12:40:45.680Z,97205.00
2023-02-09T12:41:44.276Z,97199.00
2023-02-09T12:42:44.288Z,97205.00
2023-02-09T12:43:44.292Z,97201.00
2023-02-09T12:44:44.279Z,97199.00
2023-02-09T12:45:45.879Z,97195.00
2023-02-09T12:46:44.312Z,97193.00
2023-02-09T12:47:45.318Z,97197.00
2023-02-09T12:48:12.888Z,97218.00
2023-02-09T12:48:45.306Z,97195.00
2023-02-09T12:49:45.296Z,97195.00
2023-02-09T12:50:44.310Z,97195.00
2023-02-09T12:51:17.141Z,97216.00
2023-02-09T12:51:45.310Z,97193.00
2023-02-09T12:52:45.309Z,97193.00
2023-02-09T12:53:45.320Z,97191.00
2023-02-09T12:54:09.712Z,97212.00
2023-02-09T12:54:44.342Z,97193.00
2023-02-09T12:55:10.273Z,97216.00
2023-02-09T12:55:45.794Z,97191.00
2023-02-09T12:56:44.345Z,97189.00
2023-02-09T12:57:47.447Z,97189.00
2023-02-09T12:58:06.598Z,97214.00
2023-02-09T12:58:45.363Z,97189.00
2023-02-09T12:59:06.564Z,97210.00
2023-02-09T12:59:44.346Z,97187.00
2023-02-09T13:00:07.344Z,97210.00
2023-02-09T13:00:45.346Z,97187.00
2023-02-09T13:01:45.349Z,97185.00
2023-02-09T13:02:25.683Z,97210.00
2023-02-09T13:02:45.302Z,97187.00
2023-02-09T13:03:25.908Z,97206.00
2023-02-09T13:03:45.371Z,97181.00
2023-02-09T13:04:45.295Z,97183.00
2023-02-09T13:05:44.572Z,97181.00
2023-02-09T13:06:44.299Z,97179.00
2023-02-09T13:07:44.271Z,97177.00
2023-02-09T13:08:45.276Z,97175.00
2023-02-09T13:09:24.478Z,97188.00
2023-02-09T13:10:24.341Z,97192.00
2023-02-09T13:11:24.181Z,97188.00
2023-02-09T13:12:24.481Z,97184.00
2023-02-09T13:13:25.173Z,97180.00
2023-02-09T13:14:24.013Z,97180.00
2023-02-09T13:16:44.025Z,97172.00
2023-02-09T13:25:03.405Z,97170.00
2023-02-09T13:27:23.205Z,97170.00
2023-02-09T13:31:28.894Z,97168.00
2023-02-09T13:31:44.152Z,97150.00
2023-02-09T13:33:44.123Z,97150.00
2023-02-09T13:37:56.883Z,97168.00
2023-02-09T13:40:16.435Z,97168.00
2023-02-09T13:43:22.518Z,97167.00
2023-02-09T13:44:23.559Z,97167.00
2023-02-09T13:45:22.660Z,97161.00
2023-02-09T13:46:23.128Z,97161.00
2023-02-09T13:46:45.058Z,97140.00
2023-02-09T13:47:45.008Z,97138.00
2023-02-09T14:11:42.620Z,97163.00
2023-02-09T14:13:41.073Z,97159.00
2023-02-09T14:14:41.156Z,97161.00
2023-02-09T14:15:41.956Z,97163.00
2023-02-09T14:19:01.879Z,97165.00
2023-02-09T14:28:14.827Z,97165.00
2023-02-09T14:37:29.945Z,97161.00
2023-02-09T14:39:43.649Z,97140.00
2023-02-09T14:45:13.529Z,97163.00
2023-02-09T14:47:54.853Z,97161.00
2023-02-09T14:48:54.710Z,97161.00
2023-02-09T14:49:55.355Z,97163.00
2023-02-09T14:56:24.142Z,97159.00
2023-02-09T14:57:23.569Z,97161.00
2023-02-09T14:58:24.841Z,97163.00
2023-02-09T14:59:24.636Z,97163.00
2023-02-09T15:03:43.185Z,97163.00
2023-02-09T15:11:22.538Z,97161.00
2023-02-09T15:14:42.860Z,97161.00
2023-02-09T15:16:43.559Z,97159.00
2023-02-09T15:17:43.513Z,97159.00
2023-02-09T15:18:42.808Z,97161.00
2023-02-09T15:20:43.501Z,97163.00
2023-02-09T15:22:43.346Z,97165.00
2023-02-09T15:23:43.346Z,97167.00
2023-02-09T15:24:43.284Z,97170.00
2023-02-09T15:30:44.973Z,97146.00
2023-02-09T15:35:26.142Z,97178.00
2023-02-09T15:39:04.900Z,97178.00
2023-02-09T15:41:24.687Z,97180.00
2023-02-09T15:59:42.233Z,97214.00
2023-02-09T16:09:26.992Z,97228.00
2023-02-09T16:10:27.434Z,97230.00
2023-02-09T16:24:38.775Z,97265.00
2023-02-09T16:29:14.449Z,97263.00
2023-02-09T16:30:56.942Z,97236.00
2023-02-09T16:31:47.968Z,97240.00
2023-02-09T16:32:47.923Z,97238.00
2023-02-09T16:33:46.906Z,97238.00
2023-02-09T16:34:47.980Z,97238.00
2023-02-09T16:35:48.274Z,97246.00
2023-02-09T16:36:48.740Z,97246.00
2023-02-09T16:37:46.884Z,97244.00
2023-02-09T16:38:47.910Z,97244.00
2023-02-09T16:39:47.862Z,97250.00
2023-02-09T16:40:47.877Z,97250.00
2023-02-09T16:41:46.879Z,97254.00
2023-02-09T16:42:48.693Z,97256.00
2023-02-09T16:43:47.877Z,97256.00
2023-02-09T16:44:47.836Z,97256.00
2023-02-09T16:46:00.940Z,97258.00
2023-02-09T16:46:47.851Z,97256.00
2023-02-09T16:47:46.805Z,97258.00
2023-02-09T16:48:47.806Z,97262.00
2023-02-09T16:49:46.810Z,97264.00
2023-02-09T16:50:48.165Z,97264.00
2023-02-09T16:51:47.780Z,97266.00
2023-02-09T16:52:47.784Z,97272.00
2023-02-09T16:53:47.768Z,97266.00
2023-02-09T16:54:47.777Z,97272.00
2023-02-09T16:55:49.461Z,97274.00
2023-02-09T16:56:53.926Z,97275.00
2023-02-09T16:57:47.760Z,97283.00
2023-02-09T16:58:46.742Z,97281.00
2023-02-09T16:59:46.773Z,97287.00
2023-02-09T17:00:47.820Z,97291.00
2023-02-09T17:01:48.458Z,97291.00
2023-02-09T17:02:46.700Z,97291.00
2023-02-09T17:03:47.793Z,97295.00
2023-02-09T17:04:47.724Z,97295.00
2023-02-09T17:05:48.090Z,97297.00
2023-02-09T17:06:46.692Z,97297.00
2023-02-09T17:07:54.546Z,97299.00
2023-02-09T17:08:47.668Z,97301.00
2023-02-09T17:09:47.688Z,97303.00
2023-02-09T17:10:47.643Z,97297.00
2023-02-09T17:11:46.653Z,97305.00
2023-02-09T17:12:46.641Z,97301.00
2023-02-09T17:13:47.637Z,97301.00
2023-02-09T17:14:46.636Z,97301.00
2023-02-09T17:15:48.205Z,97305.00
2023-02-09T17:16:47.721Z,97303.00
2023-02-09T17:17:46.623Z,97309.00
2023-02-09T17:18:46.596Z,97307.00
2023-02-09T17:19:48.315Z,97307.00
2023-02-09T17:20:47.611Z,97305.00
2023-02-09T17:21:47.586Z,97307.00
2023-02-09T17:22:47.586Z,97307.00
2023-02-09T17:23:47.577Z,97307.00
2023-02-09T17:24:47.556Z,97311.00
2023-02-09T17:25:47.967Z,97311.00
2023-02-09T17:26:46.554Z,97313.00
2023-02-09T17:27:47.547Z,97311.00
2023-02-09T17:28:47.544Z,97313.00
2023-02-09T17:29:47.534Z,97315.00
2023-02-09T17:30:47.534Z,97315.00
2023-02-09T17:31:53.245Z,97315.00
2023-02-09T17:32:47.500Z,97315.00
2023-02-09T17:33:47.493Z,97313.00
2023-02-09T17:34:47.538Z,97313.00
2023-02-09T17:36:22.417Z,97315.00
2023-02-09T17:36:47.483Z,97315.00
2023-02-09T17:37:47.467Z,97315.00
2023-02-09T17:38:47.457Z,97315.00
2023-02-09T17:39:47.516Z,97319.00
2023-02-09T17:40:47.454Z,97321.00
2023-02-09T17:41:46.526Z,97321.00
2023-02-09T17:42:47.429Z,97322.00
2023-02-09T17:43:47.432Z,97326.00
2023-02-09T17:44:47.429Z,97326.00
2023-02-09T17:45:47.834Z,97332.00
2023-02-09T17:46:46.398Z,97334.00
2023-02-09T17:47:46.437Z,97332.00
2023-02-09T17:48:47.409Z,97338.00
2023-02-09T17:49:46.434Z,97338.00
2023-02-09T17:50:47.395Z,97342.00
2023-02-09T17:51:47.372Z,97346.00
2023-02-09T17:52:47.355Z,97350.00
2023-02-09T17:53:47.354Z,97352.00
2023-02-09T17:54:47.370Z,97354.00
2023-02-09T17:55:47.659Z,97358.00
2023-02-09T17:56:46.326Z,97360.00
2023-02-09T17:57:47.328Z,97362.00
2023-02-09T17:58:47.344Z,97362.00
2023-02-09T17:59:46.320Z,97360.00
2023-02-09T18:00:47.316Z,97358.00
2023-02-09T18:01:47.399Z,97358.00
2023-02-09T18:02:47.342Z,97360.00
2023-02-09T18:03:46.326Z,97360.00
2023-02-09T18:04:47.291Z,97360.00
2023-02-09T18:05:47.759Z,97362.00
2023-02-09T18:06:47.278Z,97366.00
2023-02-09T18:07:47.268Z,97364.00
2023-02-09T18:08:47.328Z,97368.00
2023-02-09T18:09:47.260Z,97368.00
2023-02-09T18:10:46.248Z,97369.00
2023-02-09T18:11:47.232Z,97369.00
2023-02-09T18:12:47.229Z,97371.00
2023-02-09T18:13:47.221Z,97375.00
2023-02-09T18:14:46.221Z,97375.00
2023-02-09T18:15:47.564Z,97377.00
2023-02-09T18:16:47.264Z,97373.00
2023-02-09T18:17:47.199Z,97379.00
2023-02-09T18:18:47.181Z,97377.00
2023-02-09T18:19:47.205Z,97377.00
2023-02-09T18:20:47.943Z,97379.00
2023-02-09T18:21:47.172Z,97375.00
2023-02-09T18:22:47.162Z,97375.00
2023-02-09T18:23:46.154Z,97375.00
2023-02-09T18:24:47.146Z,97375.00
2023-02-09T18:25:47.580Z,97375.00
2023-02-09T18:26:46.133Z,97379.00
2023-02-09T18:27:47.117Z,97379.00
2023-02-09T18:28:47.110Z,97383.00
2023-02-09T18:29:47.105Z,97387.00
2023-02-09T18:30:47.158Z,97389.00
2023-02-09T18:31:47.080Z,97393.00
2023-02-09T18:32:47.075Z,97391.00
2023-02-09T18:33:46.085Z,97395.00
2023-02-09T18:34:47.067Z,97397.00
2023-02-09T18:35:47.477Z,97395.00
2023-02-09T18:36:47.055Z,97399.00
2023-02-09T18:37:47.207Z,97397.00
2023-02-09T18:38:47.180Z,97399.00
2023-02-09T18:39:46.344Z,97399.00
2023-02-09T18:40:46.133Z,97399.00
2023-02-09T18:41:47.003Z,97399.00
2023-02-09T18:42:47.026Z,97393.00
2023-02-09T18:43:47.006Z,97397.00
2023-02-09T18:44:47.007Z,97397.00
2023-02-09T18:45:47.423Z,97391.00
2023-02-09T18:46:47.036Z,97389.00
2023-02-09T18:47:47.063Z,97393.00
2023-02-09T18:48:46.110Z,97391.00
2023-02-09T18:49:46.114Z,97391.00
2023-02-09T18:50:47.163Z,97391.00
2023-02-09T18:51:47.197Z,97389.00
2023-02-09T18:52:46.192Z,97393.00
2023-02-09T18:53:48.641Z,97391.00
2023-02-09T18:54:47.231Z,97395.00
2023-02-09T18:55:47.607Z,97395.00
2023-02-09T18:56:47.309Z,97393.00
2023-02-09T18:57:47.385Z,97393.00
2023-02-09T18:58:47.360Z,97395.00
2023-02-09T18:59:47.894Z,97399.00
2023-02-09T19:00:46.411Z,97401.00
2023-02-09T19:01:46.652Z,97405.00
2023-02-09T19:02:46.563Z,97403.00
2023-02-09T19:03:47.523Z,97405.00
2023-02-09T19:04:47.534Z,97405.00
2023-02-09T19:05:47.982Z,97408.00
2023-02-09T19:06:47.621Z,97410.00
2023-02-09T19:07:46.650Z,97413.00
2023-02-09T19:08:47.662Z,97416.00
2023-02-09T19:09:47.693Z,97418.00
2023-02-09T19:10:47.721Z,97418.00
2023-02-09T19:11:46.757Z,97418.00
2023-02-09T19:12:47.788Z,97416.00
2023-02-09T19:13:47.803Z,97418.00
2023-02-09T19:14:47.886Z,97416.00
2023-02-09T19:15:48.306Z,97416.00
2023-02-09T19:16:47.920Z,97418.00
2023-02-09T19:17:47.957Z,97420.00
2023-02-09T19:18:46.976Z,97422.00
2023-02-09T19:19:47.053Z,97426.00
2023-02-09T19:20:48.041Z,97428.00
2023-02-09T19:21:48.104Z,97428.00
2023-02-09T19:22:48.121Z,97430.00
2023-02-09T19:23:48.166Z,97430.00
2023-02-09T19:24:48.209Z,97430.00
2023-02-09T19:25:47.559Z,97428.00
2023-02-09T19:26:48.252Z,97430.00
2023-02-09T19:27:48.301Z,97430.00
2023-02-09T19:28:47.327Z,97432.00
2023-02-09T19:29:48.384Z,97432.00
2023-02-09T19:30:47.449Z,97432.00
2023-02-09T19:31:48.494Z,97430.00
2023-02-09T19:32:48.516Z,97430.00
2023-02-09T19:33:48.537Z,97428.00
2023-02-09T19:34:48.591Z,97430.00
2023-02-09T19:35:47.964Z,97428.00
2023-02-09T19:36:48.682Z,97430.00
2023-02-09T19:37:48.730Z,97428.00
2023-02-09T19:38:48.769Z,97428.00
2023-02-09T19:39:48.827Z,97428.00
2023-02-09T19:40:47.840Z,97428.00
2023-02-09T19:41:47.876Z,97428.00
2023-02-09T19:42:48.921Z,97428.00
2023-02-09T19:43:49.000Z,97430.00
2023-02-09T19:44:48.999Z,97432.00
2023-02-09T19:45:49.186Z,97434.00
2023-02-09T19:46:48.236Z,97432.00
2023-02-09T19:47:49.145Z,97434.00
2023-02-09T19:48:49.255Z,97438.00
2023-02-09T19:49:49.211Z,97438.00
2023-02-09T19:50:48.251Z,97438.00
2023-02-09T19:51:49.314Z,97440.00
2023-02-09T19:52:49.346Z,97440.00
2023-02-09T19:53:48.409Z,97440.00
2023-02-09T19:54:49.449Z,97438.00
2023-02-09T19:55:49.551Z,97438.00
2023-02-09T19:56:49.565Z,97438.00
2023-02-09T19:57:48.575Z,97438.00
2023-02-09T19:58:49.626Z,97436.00
2023-02-09T19:59:49.683Z,97436.00
2023-02-09T20:00:49.868Z,97436.00
2023-02-09T20:01:49.787Z,97436.00
2023-02-09T20:02:49.855Z,97438.00
2023-02-09T20:03:49.839Z,97434.00
2023-02-09T20:04:49.896Z,97434.00
2023-02-09T20:05:49.361Z,97434.00
2023-02-09T20:06:50.009Z,97434.00
2023-02-09T20:07:50.073Z,97436.00
2023-02-09T20:08:50.075Z,97440.00
2023-02-09T20:09:49.133Z,97440.00
2023-02-09T20:10:49.588Z,97444.00
2023-02-09T20:11:50.275Z,97446.00
2023-02-09T20:12:50.275Z,97446.00
2023-02-09T20:13:50.322Z,97448.00
2023-02-09T20:14:50.372Z,97448.00
2023-02-09T20:15:49.865Z,97448.00
2023-02-09T20:16:50.463Z,97444.00
2023-02-09T20:17:50.547Z,97448.00
2023-02-09T20:18:50.567Z,97450.00
2023-02-09T20:19:50.618Z,97450.00
2023-02-09T20:20:49.865Z,97452.00
2023-02-09T20:21:50.746Z,97456.00
2023-02-09T20:22:50.775Z,97454.00
2023-02-09T20:23:50.031Z,97456.00
2023-02-09T20:24:50.882Z,97458.00
2023-02-09T20:25:50.918Z,97454.00
2023-02-09T20:26:50.985Z,97458.00
2023-02-09T20:27:51.108Z,97456.00
2023-02-09T20:28:50.128Z,97456.00
2023-02-09T20:29:50.129Z,97458.00
2023-02-09T20:30:51.274Z,97460.00
2023-02-09T20:31:51.379Z,97458.00
2023-02-09T20:32:51.318Z,97460.00
2023-02-09T20:33:51.343Z,97462.00
2023-02-09T20:34:51.097Z,97460.00
2023-02-09T20:35:51.925Z,97460.00
2023-02-09T20:36:51.916Z,97460.00
2023-02-09T20:37:51.784Z,97460.00
2023-02-09T20:40:09.548Z,97460.00
2023-02-09T20:41:10.535Z,97456.00
2023-02-09T20:42:09.545Z,97460.00
2023-02-09T20:43:10.556Z,97458.00
2023-02-09T20:44:09.529Z,97452.00
2023-02-09T20:45:10.533Z,97452.00
2023-02-09T20:46:09.666Z,97450.00
2023-02-09T20:47:10.493Z,97448.00
2023-02-09T20:48:10.513Z,97448.00
2023-02-09T20:49:09.489Z,97452.00
2023-02-09T20:50:10.855Z,97456.00
2023-02-09T20:51:09.525Z,97456.00
2023-02-09T20:52:10.463Z,97460.00
2023-02-09T20:53:10.453Z,97460.00
2023-02-09T20:54:10.439Z,97462.00
2023-02-09T20:55:10.554Z,97472.00
2023-02-09T20:56:10.501Z,97476.00
2023-02-09T20:57:10.428Z,97474.00
2023-02-09T20:58:10.410Z,97474.00
2023-02-09T20:59:10.438Z,97474.00
2023-02-09T21:00:10.400Z,97474.00
2023-02-09T21:01:10.731Z,97477.00
2023-02-09T21:02:10.474Z,97479.00
2023-02-09T21:03:10.388Z,97479.00
2023-02-09T21:04:10.384Z,97481.00
2023-02-09T21:05:10.356Z,97479.00
2023-02-09T21:06:10.368Z,97485.00
2023-02-09T21:07:10.382Z,97483.00
2023-02-09T21:08:10.352Z,97483.00
2023-02-09T21:09:10.342Z,97491.00
2023-02-09T21:10:10.336Z,97493.00
2023-02-09T21:11:10.917Z,97495.00
2023-02-09T21:12:10.332Z,97499.00
2023-02-09T21:13:09.319Z,97499.00
2023-02-09T21:14:21.643Z,97497.00
2023-02-09T21:15:10.331Z,97497.00
2023-02-09T21:16:10.307Z,97497.00
2023-02-09T21:17:10.282Z,97499.00
2023-02-09T21:18:10.278Z,97499.00
2023-02-09T21:19:10.320Z,97501.00
2023-02-09T21:20:09.293Z,97493.00
2023-02-09T21:21:10.249Z,97493.00
2023-02-09T21:22:10.245Z,97487.00
2023-02-09T21:23:09.232Z,97485.00
2023-02-09T21:24:10.215Z,97483.00
2023-02-09T21:25:09.229Z,97485.00
2023-02-09T21:26:10.211Z,97483.00
2023-02-09T21:27:10.217Z,97481.00
2023-02-09T21:28:10.291Z,97487.00
2023-02-09T21:29:10.213Z,97489.00
2023-02-09T21:30:10.197Z,97493.00
2023-02-09T21:31:10.235Z,97497.00
2023-02-09T21:32:10.199Z,97497.00
2023-02-09T21:33:10.166Z,97495.00
2023-02-09T21:34:10.182Z,97495.00
2023-02-09T21:35:10.376Z,97491.00
2023-02-09T21:36:09.153Z,97491.00
2023-02-09T21:37:10.230Z,97491.00
2023-02-09T21:38:09.145Z,97491.00
2023-02-09T21:39:10.155Z,97497.00
2023-02-09T21:40:10.110Z,97497.00
2023-02-09T21:41:10.102Z,97499.00
2023-02-09T21:42:10.099Z,97503.00
2023-02-09T21:43:10.114Z,97503.00
2023-02-09T21:44:10.076Z,97501.00
2023-02-09T21:45:10.078Z,97503.00
2023-02-09T21:46:10.120Z,97499.00
2023-02-09T21:47:09.080Z,97503.00
2023-02-09T21:48:10.070Z,97505.00
2023-02-09T21:49:10.088Z,97505.00
2023-02-09T21:50:10.068Z,97507.00
2023-02-09T21:51:10.041Z,97505.00
2023-02-09T21:52:10.037Z,97507.00
2023-02-09T21:53:10.038Z,97509.00
2023-02-09T21:54:10.028Z,97511.00
2023-02-09T21:55:10.010Z,97511.00
2023-02-09T21:56:10.002Z,97513.00
2023-02-09T21:57:08.993Z,97517.00
2023-02-09T21:58:09.000Z,97519.00
2023-02-09T21:59:08.978Z,97519.00
2023-02-09T22:00:09.961Z,97515.00
2023-02-09T22:01:10.035Z,97517.00
2023-02-09T22:02:09.951Z,97515.00
2023-02-09T22:03:09.983Z,97515.00
2023-02-09T22:04:10.043Z,97513.00
2023-02-09T22:05:10.045Z,97515.00
2023-02-09T22:06:09.937Z,97515.00
2023-02-09T22:07:09.913Z,97513.00
2023-02-09T22:08:09.928Z,97519.00
2023-02-09T22:09:09.916Z,97519.00
2023-02-09T22:10:09.903Z,97523.00
2023-02-09T22:11:09.909Z,97523.00
2023-02-09T22:12:09.911Z,97526.00
2023-02-09T22:13:09.879Z,97526.00
2023-02-09T22:14:09.874Z,97523.00
2023-02-09T22:15:09.866Z,97523.00
2023-02-09T22:16:09.861Z,97524.00
2023-02-09T22:17:09.842Z,97524.00
2023-02-09T22:18:09.842Z,97528.00
2023-02-09T22:19:09.870Z,97526.00
2023-02-09T22:20:09.835Z,97530.00
2023-02-09T22:21:09.826Z,97530.00
2023-02-09T22:22:08.825Z,97530.00
2023-02-09T22:23:09.844Z,97528.00
2023-02-09T22:24:09.792Z,97528.00
2023-02-09T22:25:09.793Z,97530.00
2023-02-09T22:26:10.772Z,97530.00
2023-02-09T22:27:09.786Z,97530.00
2023-02-09T22:28:09.846Z,97528.00
2023-02-09T22:29:09.774Z,97530.00
2023-02-09T22:30:08.749Z,97532.00
2023-02-09T22:31:09.803Z,97534.00
2023-02-09T22:32:09.746Z,97536.00
2023-02-09T22:33:09.741Z,97536.00
2023-02-09T22:34:09.738Z,97540.00
2023-02-09T22:35:09.735Z,97534.00
2023-02-09T22:36:09.756Z,97534.00
2023-02-09T22:37:09.773Z,97534.00
2023-02-09T22:38:09.775Z,97540.00
2023-02-09T22:39:08.815Z,97542.00
2023-02-09T22:40:09.817Z,97544.00
2023-02-09T22:41:08.814Z,97546.00
2023-02-09T22:42:09.836Z,97542.00
2023-02-09T22:43:09.876Z,97544.00
2023-02-09T22:44:09.914Z,97546.00
2023-02-09T22:45:08.901Z,97544.00
2023-02-09T22:46:09.993Z,97546.00
2023-02-09T22:47:09.945Z,97544.00
2023-02-09T22:48:09.993Z,97546.00
2023-02-09T22:49:09.964Z,97544.00
2023-02-09T22:50:10.012Z,97548.00
2023-02-09T22:51:10.036Z,97548.00
2023-02-09T22:52:09.030Z,97554.00
2023-02-09T22:53:10.067Z,97550.00
2023-02-09T22:54:10.074Z,97554.00
2023-02-09T22:55:10.110Z,97558.00
2023-02-09T22:56:10.122Z,97562.00
2023-02-09T22:57:09.148Z,97564.00
2023-02-09T22:58:10.227Z,97564.00
2023-02-09T22:59:10.198Z,97566.00
2023-02-09T23:00:10.245Z,97568.00
2023-02-09T23:01:09.236Z,97568.00
2023-02-09T23:02:12.457Z,97562.00
2023-02-09T23:03:09.250Z,97564.00
2023-02-09T23:04:10.327Z,97566.00
2023-02-09T23:05:09.278Z,97568.00
2023-02-09T23:06:10.224Z,97570.00
2023-02-09T23:07:10.252Z,97570.00
2023-02-09T23:08:10.214Z,97570.00
2023-02-09T23:09:09.214Z,97570.00
2023-02-09T23:10:10.210Z,97570.00
2023-02-09T23:11:10.212Z,97570.00
2023-02-09T23:14:10.770Z,97570.00
2023-02-09T23:15:09.189Z,97575.00
2023-02-09T23:16:09.301Z,97575.00
2023-02-09T23:17:10.173Z,97575.00
2023-02-09T23:18:09.150Z,97577.00
2023-02-09T23:20:09.129Z,97585.00
2023-02-09T23:21:09.147Z,97583.00
2023-02-09T23:22:10.120Z,97587.00
2023-02-09T23:23:09.115Z,97589.00
2023-02-09T23:24:10.171Z,97589.00
2023-02-09T23:25:09.128Z,97593.00
2023-02-09T23:28:09.162Z,97597.00
2023-02-09T23:29:09.097Z,97595.00
2023-02-09T23:30:09.086Z,97595.00
2023-02-09T23:31:09.113Z,97597.00
2023-02-09T23:33:09.044Z,97593.00
2023-02-09T23:34:09.066Z,97591.00
2023-02-09T23:35:10.065Z,97595.00
2023-02-09T23:36:09.111Z,97597.00
2023-02-09T23:37:18.519Z,97601.00
2023-02-09T23:39:09.122Z,97599.00
2023-02-09T23:40:10.118Z,97599.00
2023-02-09T23:41:09.109Z,97597.00
2023-02-09T23:42:09.091Z,97601.00
2023-02-09T23:44:09.093Z,97603.00
2023-02-09T23:46:09.107Z,97605.00
2023-02-09T23:47:09.060Z,97605.00
2023-02-09T23:48:10.057Z,97601.00
2023-02-09T23:49:09.060Z,97603.00
2023-02-09T23:50:09.060Z,97603.00
2023-02-09T23:51:10.029Z,97603.00
2023-02-09T23:52:09.028Z,97605.00
2023-02-09T23:53:09.048Z,97605.00
2023-02-09T23:54:10.100Z,97607.00
2023-02-09T23:56:10.152Z,97605.00
2023-02-09T23:57:10.189Z,97605.00
2023-02-09T23:58:09.239Z,97605.00
2023-02-09T23:59:10.256Z,97607.00
